Global Gold — 3FHS7 — position and weather

sailwx.info

Track history (hours):
 
Tides and Currents Weather Stations Pressure Air Temp Water Temp Dewpoint Dewpoint Depression Visibility Wind Speed Wind Dir Waves Ship Positions

Global Gold

Last reported at 2017-Oct-31 01:20 UTC. Time now 2017-Nov-24 14:57 UTC.
Position N 30°58' E 122°36'.
Warning: this ship's position is 24 days out of date.

Length 177 m; draft 7.4 m.

Type: Cargo ship. MMSI: 373889000.

Date/timePositionNaut miles runAvg speedWind from/ knotsBaromVisibWave heightAir tempDewpointWater temp
2017-Oct-31 01:20N 30°58' E 122°36'411.7
2017-Oct-31 00:58N 30°59' E 122°32'511.7
2017-Oct-31 00:30N 31°00' E 122°25'611.2
2017-Oct-31 00:00N 31°02' E 122°19'510.0
2017-Oct-30 23:30N 31°03' E 122°13'4 8.2
2017-Oct-30 23:00N 31°03' E 122°09'5 9.2
2017-Oct-30 22:30N 31°04' E 122°03'4 8.2
2017-Oct-30 22:00N 31°06' E 121°59'3 6.8
2017-Oct-30 21:30N 31°07' E 121°56'611.0
2017-Oct-30 21:00N 31°11' E 121°50'612.8
2017-Oct-30 20:30N 31°16' E 121°46'612.5
2017-Oct-30 20:00N 31°20' E 121°41'811.5
2017-Oct-30 19:18N 31°24' E 121°32'3 8.9
2017-Oct-30 19:00N 31°26' E 121°30'4 7.0
2017-Oct-30 18:30N 31°28' E 121°27'4 8.9
2017-Oct-30 18:00N 31°31' E 121°23'612.0
2017-Oct-30 17:31N 31°35' E 121°18'612.4
2017-Oct-30 17:00N 31°40' E 121°13'612.2
2017-Oct-30 16:30N 31°43' E 121°07'611.4
2017-Oct-30 16:00N 31°46' E 121°01'510.0
2017-Oct-30 15:28N 31°48' E 120°55'23 9.4
2017-Oct-30 13:01N 32°01' E 120°33'010.5
2017-Oct-30 13:00N 32°01' E 120°32'611.7
2017-Oct-30 12:31N 32°02' E 120°26'  
2017-Oct-26 18:02N 32°01' E 120°24'1 9.2
2017-Oct-26 17:58N 32°01' E 120°25'4 8.5
2017-Oct-26 17:29N 32°02' E 120°30'10 9.6
2017-Oct-26 16:28N 32°00' E 120°41'7 9.5
2017-Oct-26 15:45N 32°00' E 120°49'210.3
2017-Oct-26 15:30N 31°58' E 120°51'510.6
2017-Oct-26 15:00N 31°53' E 120°53'510.5
2017-Oct-26 14:30N 31°48' E 120°55'5 9.9
2017-Oct-26 13:58N 31°46' E 121°01'5 9.9
2017-Oct-26 13:27N 31°44' E 121°06'510.0
2017-Oct-26 13:00N 31°41' E 121°10'510.6
2017-Oct-26 12:30N 31°38' E 121°15'611.1
2017-Oct-26 12:00N 31°34' E 121°19'611.1
2017-Oct-26 11:30N 31°30' E 121°25'5 9.6
2017-Oct-26 11:00N 31°27' E 121°29'3 6.0
2017-Oct-26 10:30N 31°25' E 121°31'5 9.3
2017-Oct-26 10:00N 31°23' E 121°36'510.8
2017-Oct-26 09:30N 31°20' E 121°42'510.9
2017-Oct-26 09:00N 31°18' E 121°47'612.3
2017-Oct-26 08:30N 31°16' E 121°54'612.3
2017-Oct-26 08:00N 31°15' E 122°01'510.0
2017-Oct-26 07:30N 31°13' E 122°07'610.3
2017-Oct-26 06:55N 31°10' E 122°13'410.0
2017-Oct-26 06:30N 31°07' E 122°17'5 9.2
2017-Oct-26 05:59N 31°06' E 122°22'7 9.7
2017-Oct-26 05:18N 31°08' E 122°29'8 0.1
2017-Oct-24 01:50N 31°09' E 122°38'  
Track history (hours):
 
Tides and Currents Weather Stations Pressure Air Temp Water Temp Dewpoint Dewpoint Depression Visibility Wind Speed Wind Dir Waves Ship Positions

Global Gold

Last reported at 2017-Oct-31 01:20 UTC. Time now 2017-Nov-24 14:57 UTC.
Position N 30°58' E 122°36'.
Warning: this ship's position is 24 days out of date.

Length 177 m; draft 7.4 m.

Type: Cargo ship. MMSI: 373889000.

Date/timePositionNaut miles runAvg speedWind from/ knotsBaromVisibWave heightAir tempDewpointWater temp
2017-Oct-31 01:20N 30°58' E 122°36'411.7
2017-Oct-31 00:58N 30°59' E 122°32'511.7
2017-Oct-31 00:30N 31°00' E 122°25'611.2
2017-Oct-31 00:00N 31°02' E 122°19'510.0
2017-Oct-30 23:30N 31°03' E 122°13'4 8.2
2017-Oct-30 23:00N 31°03' E 122°09'5 9.2
2017-Oct-30 22:30N 31°04' E 122°03'4 8.2
2017-Oct-30 22:00N 31°06' E 121°59'3 6.8
2017-Oct-30 21:30N 31°07' E 121°56'611.0
2017-Oct-30 21:00N 31°11' E 121°50'612.8
2017-Oct-30 20:30N 31°16' E 121°46'612.5
2017-Oct-30 20:00N 31°20' E 121°41'811.5
2017-Oct-30 19:18N 31°24' E 121°32'3 8.9
2017-Oct-30 19:00N 31°26' E 121°30'4 7.0
2017-Oct-30 18:30N 31°28' E 121°27'4 8.9
2017-Oct-30 18:00N 31°31' E 121°23'612.0
2017-Oct-30 17:31N 31°35' E 121°18'612.4
2017-Oct-30 17:00N 31°40' E 121°13'612.2
2017-Oct-30 16:30N 31°43' E 121°07'611.4
2017-Oct-30 16:00N 31°46' E 121°01'510.0
2017-Oct-30 15:28N 31°48' E 120°55'23 9.4
2017-Oct-30 13:01N 32°01' E 120°33'010.5
2017-Oct-30 13:00N 32°01' E 120°32'611.7
2017-Oct-30 12:31N 32°02' E 120°26'  
2017-Oct-26 18:02N 32°01' E 120°24'1 9.2
2017-Oct-26 17:58N 32°01' E 120°25'4 8.5
2017-Oct-26 17:29N 32°02' E 120°30'10 9.6
2017-Oct-26 16:28N 32°00' E 120°41'7 9.5
2017-Oct-26 15:45N 32°00' E 120°49'210.3
2017-Oct-26 15:30N 31°58' E 120°51'510.6
2017-Oct-26 15:00N 31°53' E 120°53'510.5
2017-Oct-26 14:30N 31°48' E 120°55'5 9.9
2017-Oct-26 13:58N 31°46' E 121°01'5 9.9
2017-Oct-26 13:27N 31°44' E 121°06'510.0
2017-Oct-26 13:00N 31°41' E 121°10'510.6
2017-Oct-26 12:30N 31°38' E 121°15'611.1
2017-Oct-26 12:00N 31°34' E 121°19'611.1
2017-Oct-26 11:30N 31°30' E 121°25'5 9.6
2017-Oct-26 11:00N 31°27' E 121°29'3 6.0
2017-Oct-26 10:30N 31°25' E 121°31'5 9.3
2017-Oct-26 10:00N 31°23' E 121°36'510.8
2017-Oct-26 09:30N 31°20' E 121°42'510.9
2017-Oct-26 09:00N 31°18' E 121°47'612.3
2017-Oct-26 08:30N 31°16' E 121°54'612.3
2017-Oct-26 08:00N 31°15' E 122°01'510.0
2017-Oct-26 07:30N 31°13' E 122°07'610.3
2017-Oct-26 06:55N 31°10' E 122°13'410.0
2017-Oct-26 06:30N 31°07' E 122°17'5 9.2
2017-Oct-26 05:59N 31°06' E 122°22'7 9.7
2017-Oct-26 05:18N 31°08' E 122°29'8 0.1
2017-Oct-24 01:50N 31°09' E 122°38'  

Dump ship's entire track history